sensor_id;sensor_type;location;lat;lon;timestamp;P1;durP1;ratioP1;P2;durP2;ratioP2
10122;SDS011;5101;49.038;8.710;2024-03-07T00:01:35;33.03;;;23.98;;
10122;SDS011;5101;49.038;8.710;2024-03-07T00:04:00;35.17;;;23.67;;
10122;SDS011;5101;49.038;8.710;2024-03-07T00:06:26;40.35;;;25.67;;
10122;SDS011;5101;49.038;8.710;2024-03-07T00:08:51;54.10;;;23.67;;
10122;SDS011;5101;49.038;8.710;2024-03-07T00:11:17;38.07;;;23.00;;
10122;SDS011;5101;49.038;8.710;2024-03-07T00:13:42;57.42;;;25.10;;
10122;SDS011;5101;49.038;8.710;2024-03-07T00:16:08;54.25;;;24.95;;
10122;SDS011;5101;49.038;8.710;2024-03-07T00:18:35;53.33;;;23.92;;
10122;SDS011;5101;49.038;8.710;2024-03-07T00:21:01;37.47;;;24.80;;
10122;SDS011;5101;49.038;8.710;2024-03-07T00:23:28;33.53;;;23.95;;
10122;SDS011;5101;49.038;8.710;2024-03-07T00:25:53;36.53;;;23.75;;
10122;SDS011;5101;49.038;8.710;2024-03-07T00:28:19;34.97;;;22.92;;
10122;SDS011;5101;49.038;8.710;2024-03-07T00:30:44;29.30;;;22.00;;
10122;SDS011;5101;49.038;8.710;2024-03-07T00:33:11;29.60;;;22.07;;
10122;SDS011;5101;49.038;8.710;2024-03-07T00:35:36;33.17;;;22.00;;
10122;SDS011;5101;49.038;8.710;2024-03-07T00:38:02;30.35;;;22.08;;
10122;SDS011;5101;49.038;8.710;2024-03-07T00:40:28;31.60;;;21.77;;
10122;SDS011;5101;49.038;8.710;2024-03-07T00:42:54;33.53;;;22.40;;
10122;SDS011;5101;49.038;8.710;2024-03-07T00:45:20;27.65;;;20.67;;
10122;SDS011;5101;49.038;8.710;2024-03-07T00:47:45;27.50;;;21.15;;
10122;SDS011;5101;49.038;8.710;2024-03-07T00:50:11;28.75;;;20.17;;
10122;SDS011;5101;49.038;8.710;2024-03-07T00:52:36;32.47;;;21.60;;
10122;SDS011;5101;49.038;8.710;2024-03-07T00:55:02;26.42;;;20.42;;
10122;SDS011;5101;49.038;8.710;2024-03-07T00:57:28;25.17;;;18.40;;
10122;SDS011;5101;49.038;8.710;2024-03-07T00:59:54;31.95;;;20.55;;
10122;SDS011;5101;49.038;8.710;2024-03-07T01:02:21;31.00;;;20.05;;
10122;SDS011;5101;49.038;8.710;2024-03-07T01:04:47;29.57;;;20.90;;
10122;SDS011;5101;49.038;8.710;2024-03-07T01:07:13;31.35;;;21.23;;
10122;SDS011;5101;49.038;8.710;2024-03-07T01:09:38;30.88;;;20.17;;
10122;SDS011;5101;49.038;8.710;2024-03-07T01:12:04;30.02;;;20.83;;
10122;SDS011;5101;49.038;8.710;2024-03-07T01:14:30;29.17;;;19.30;;
10122;SDS011;5101;49.038;8.710;2024-03-07T01:16:56;30.07;;;21.43;;
10122;SDS011;5101;49.038;8.710;2024-03-07T01:19:21;29.85;;;21.63;;
10122;SDS011;5101;49.038;8.710;2024-03-07T01:21:47;34.85;;;21.85;;
10122;SDS011;5101;49.038;8.710;2024-03-07T01:24:13;30.42;;;20.92;;
10122;SDS011;5101;49.038;8.710;2024-03-07T01:26:42;30.17;;;21.80;;
10122;SDS011;5101;49.038;8.710;2024-03-07T01:29:08;30.70;;;22.75;;
10122;SDS011;5101;49.038;8.710;2024-03-07T01:31:34;30.03;;;21.40;;
10122;SDS011;5101;49.038;8.710;2024-03-07T01:33:59;31.13;;;21.53;;
10122;SDS011;5101;49.038;8.710;2024-03-07T01:36:25;31.23;;;22.23;;
10122;SDS011;5101;49.038;8.710;2024-03-07T01:38:50;30.98;;;22.15;;
10122;SDS011;5101;49.038;8.710;2024-03-07T01:41:16;32.15;;;22.13;;
10122;SDS011;5101;49.038;8.710;2024-03-07T01:43:42;33.17;;;21.52;;
10122;SDS011;5101;49.038;8.710;2024-03-07T01:46:08;33.97;;;22.40;;
10122;SDS011;5101;49.038;8.710;2024-03-07T01:48:35;31.10;;;21.57;;
10122;SDS011;5101;49.038;8.710;2024-03-07T01:51:02;31.37;;;21.70;;
10122;SDS011;5101;49.038;8.710;2024-03-07T01:53:31;29.23;;;20.40;;
10122;SDS011;5101;49.038;8.710;2024-03-07T01:55:58;30.27;;;21.80;;
10122;SDS011;5101;49.038;8.710;2024-03-07T01:58:24;33.20;;;22.33;;
10122;SDS011;5101;49.038;8.710;2024-03-07T02:00:50;27.90;;;20.60;;
10122;SDS011;5101;49.038;8.710;2024-03-07T02:03:16;33.92;;;22.48;;
10122;SDS011;5101;49.038;8.710;2024-03-07T02:05:42;34.47;;;22.10;;
10122;SDS011;5101;49.038;8.710;2024-03-07T02:08:07;30.27;;;22.37;;
10122;SDS011;5101;49.038;8.710;2024-03-07T02:10:33;32.83;;;23.00;;
10122;SDS011;5101;49.038;8.710;2024-03-07T02:12:58;31.83;;;22.13;;
10122;SDS011;5101;49.038;8.710;2024-03-07T02:15:25;35.70;;;24.07;;
10122;SDS011;5101;49.038;8.710;2024-03-07T02:17:51;34.43;;;25.13;;
10122;SDS011;5101;49.038;8.710;2024-03-07T02:20:17;33.67;;;24.87;;
10122;SDS011;5101;49.038;8.710;2024-03-07T02:22:42;33.77;;;24.73;;
10122;SDS011;5101;49.038;8.710;2024-03-07T02:25:08;34.40;;;24.67;;
10122;SDS011;5101;49.038;8.710;2024-03-07T02:27:37;33.67;;;24.80;;
10122;SDS011;5101;49.038;8.710;2024-03-07T02:30:03;34.67;;;25.70;;
10122;SDS011;5101;49.038;8.710;2024-03-07T02:32:30;36.83;;;24.67;;
10122;SDS011;5101;49.038;8.710;2024-03-07T02:34:57;32.27;;;24.70;;
10122;SDS011;5101;49.038;8.710;2024-03-07T02:37:23;32.43;;;23.27;;
10122;SDS011;5101;49.038;8.710;2024-03-07T02:39:48;32.60;;;22.97;;
10122;SDS011;5101;49.038;8.710;2024-03-07T02:42:14;30.70;;;22.57;;
10122;SDS011;5101;49.038;8.710;2024-03-07T02:44:40;29.90;;;22.30;;
10122;SDS011;5101;49.038;8.710;2024-03-07T02:47:05;28.53;;;21.77;;
10122;SDS011;5101;49.038;8.710;2024-03-07T02:49:31;27.60;;;20.83;;
10122;SDS011;5101;49.038;8.710;2024-03-07T02:51:57;27.33;;;20.63;;
10122;SDS011;5101;49.038;8.710;2024-03-07T02:54:22;28.87;;;21.07;;
10122;SDS011;5101;49.038;8.710;2024-03-07T02:56:48;28.90;;;20.63;;
10122;SDS011;5101;49.038;8.710;2024-03-07T02:59:13;29.83;;;20.90;;
10122;SDS011;5101;49.038;8.710;2024-03-07T03:01:39;28.53;;;21.30;;
10122;SDS011;5101;49.038;8.710;2024-03-07T03:04:04;27.90;;;20.27;;
10122;SDS011;5101;49.038;8.710;2024-03-07T03:06:30;30.03;;;21.83;;
10122;SDS011;5101;49.038;8.710;2024-03-07T03:08:56;30.27;;;21.93;;
10122;SDS011;5101;49.038;8.710;2024-03-07T03:11:21;27.97;;;21.60;;
10122;SDS011;5101;49.038;8.710;2024-03-07T03:13:47;26.70;;;20.77;;
10122;SDS011;5101;49.038;8.710;2024-03-07T03:16:13;29.07;;;20.53;;
10122;SDS011;5101;49.038;8.710;2024-03-07T03:18:39;27.30;;;19.60;;
10122;SDS011;5101;49.038;8.710;2024-03-07T03:21:05;29.13;;;20.57;;
10122;SDS011;5101;49.038;8.710;2024-03-07T03:23:30;32.13;;;23.63;;
10122;SDS011;5101;49.038;8.710;2024-03-07T03:25:56;28.33;;;20.90;;
10122;SDS011;5101;49.038;8.710;2024-03-07T03:28:22;29.83;;;21.40;;
10122;SDS011;5101;49.038;8.710;2024-03-07T03:30:48;26.87;;;21.23;;
10122;SDS011;5101;49.038;8.710;2024-03-07T03:33:15;29.33;;;22.20;;
10122;SDS011;5101;49.038;8.710;2024-03-07T03:35:41;27.87;;;21.53;;
10122;SDS011;5101;49.038;8.710;2024-03-07T03:38:07;32.77;;;22.60;;
10122;SDS011;5101;49.038;8.710;2024-03-07T03:40:33;31.30;;;21.23;;
10122;SDS011;5101;49.038;8.710;2024-03-07T03:42:59;32.20;;;21.93;;
10122;SDS011;5101;49.038;8.710;2024-03-07T03:45:25;33.13;;;22.57;;
10122;SDS011;5101;49.038;8.710;2024-03-07T03:47:51;29.43;;;22.43;;
10122;SDS011;5101;49.038;8.710;2024-03-07T03:50:17;30.93;;;21.87;;
10122;SDS011;5101;49.038;8.710;2024-03-07T03:52:43;31.07;;;21.57;;
10122;SDS011;5101;49.038;8.710;2024-03-07T03:55:09;30.20;;;21.80;;
10122;SDS011;5101;49.038;8.710;2024-03-07T03:57:35;31.77;;;22.53;;
10122;SDS011;5101;49.038;8.710;2024-03-07T04:00:01;28.90;;;22.30;;
10122;SDS011;5101;49.038;8.710;2024-03-07T04:02:35;30.60;;;22.47;;
10122;SDS011;5101;49.038;8.710;2024-03-07T04:05:02;30.77;;;22.50;;
10122;SDS011;5101;49.038;8.710;2024-03-07T04:07:28;32.77;;;24.00;;
10122;SDS011;5101;49.038;8.710;2024-03-07T04:09:56;32.53;;;23.33;;
10122;SDS011;5101;49.038;8.710;2024-03-07T04:12:22;34.83;;;22.87;;
10122;SDS011;5101;49.038;8.710;2024-03-07T04:14:47;32.43;;;23.17;;
10122;SDS011;5101;49.038;8.710;2024-03-07T04:17:13;35.50;;;23.83;;
10122;SDS011;5101;49.038;8.710;2024-03-07T04:19:41;34.67;;;23.70;;
10122;SDS011;5101;49.038;8.710;2024-03-07T04:22:08;35.40;;;24.27;;
10122;SDS011;5101;49.038;8.710;2024-03-07T04:24:34;34.90;;;25.23;;
10122;SDS011;5101;49.038;8.710;2024-03-07T04:27:00;40.03;;;27.67;;
10122;SDS011;5101;49.038;8.710;2024-03-07T04:29:29;38.13;;;27.90;;
10122;SDS011;5101;49.038;8.710;2024-03-07T04:31:55;38.67;;;27.17;;
10122;SDS011;5101;49.038;8.710;2024-03-07T04:34:21;40.63;;;27.90;;
10122;SDS011;5101;49.038;8.710;2024-03-07T04:36:46;38.63;;;28.10;;
10122;SDS011;5101;49.038;8.710;2024-03-07T04:39:12;40.37;;;27.87;;
10122;SDS011;5101;49.038;8.710;2024-03-07T04:41:50;41.83;;;26.60;;
10122;SDS011;5101;49.038;8.710;2024-03-07T04:44:17;44.20;;;28.80;;
10122;SDS011;5101;49.038;8.710;2024-03-07T04:46:44;40.73;;;28.53;;
10122;SDS011;5101;49.038;8.710;2024-03-07T04:49:10;37.83;;;27.47;;
10122;SDS011;5101;49.038;8.710;2024-03-07T04:51:35;40.57;;;27.80;;
10122;SDS011;5101;49.038;8.710;2024-03-07T04:54:01;40.87;;;27.30;;
10122;SDS011;5101;49.038;8.710;2024-03-07T04:56:26;41.93;;;27.17;;
10122;SDS011;5101;49.038;8.710;2024-03-07T04:58:52;37.57;;;27.00;;
10122;SDS011;5101;49.038;8.710;2024-03-07T05:01:18;43.57;;;26.77;;
10122;SDS011;5101;49.038;8.710;2024-03-07T05:03:45;39.03;;;26.03;;
10122;SDS011;5101;49.038;8.710;2024-03-07T05:06:10;36.97;;;26.93;;
10122;SDS011;5101;49.038;8.710;2024-03-07T05:08:36;37.43;;;25.53;;
10122;SDS011;5101;49.038;8.710;2024-03-07T05:11:01;37.83;;;25.20;;
10122;SDS011;5101;49.038;8.710;2024-03-07T05:13:27;40.00;;;26.63;;
10122;SDS011;5101;49.038;8.710;2024-03-07T05:15:53;36.97;;;26.83;;
10122;SDS011;5101;49.038;8.710;2024-03-07T05:18:18;38.43;;;27.23;;
10122;SDS011;5101;49.038;8.710;2024-03-07T05:20:44;36.03;;;24.97;;
10122;SDS011;5101;49.038;8.710;2024-03-07T05:23:09;40.43;;;27.50;;
10122;SDS011;5101;49.038;8.710;2024-03-07T05:25:35;38.27;;;27.07;;
10122;SDS011;5101;49.038;8.710;2024-03-07T05:28:01;38.67;;;25.90;;
10122;SDS011;5101;49.038;8.710;2024-03-07T05:30:27;38.17;;;26.57;;
10122;SDS011;5101;49.038;8.710;2024-03-07T05:32:53;39.67;;;26.90;;
10122;SDS011;5101;49.038;8.710;2024-03-07T05:35:18;38.00;;;26.47;;
10122;SDS011;5101;49.038;8.710;2024-03-07T05:37:45;38.37;;;27.30;;
10122;SDS011;5101;49.038;8.710;2024-03-07T05:40:12;36.63;;;25.27;;
10122;SDS011;5101;49.038;8.710;2024-03-07T05:42:37;36.87;;;26.77;;
10122;SDS011;5101;49.038;8.710;2024-03-07T05:45:03;36.23;;;26.33;;
10122;SDS011;5101;49.038;8.710;2024-03-07T05:47:32;38.97;;;27.00;;
10122;SDS011;5101;49.038;8.710;2024-03-07T05:49:58;34.80;;;26.07;;
10122;SDS011;5101;49.038;8.710;2024-03-07T05:52:24;37.33;;;26.07;;
10122;SDS011;5101;49.038;8.710;2024-03-07T05:54:49;37.83;;;25.83;;
10122;SDS011;5101;49.038;8.710;2024-03-07T05:57:14;35.13;;;24.60;;
10122;SDS011;5101;49.038;8.710;2024-03-07T05:59:40;34.27;;;24.83;;
10122;SDS011;5101;49.038;8.710;2024-03-07T06:02:05;32.80;;;23.73;;
10122;SDS011;5101;49.038;8.710;2024-03-07T06:04:31;36.73;;;25.63;;
10122;SDS011;5101;49.038;8.710;2024-03-07T06:06:57;36.50;;;24.80;;
10122;SDS011;5101;49.038;8.710;2024-03-07T06:09:23;35.47;;;24.33;;
10122;SDS011;5101;49.038;8.710;2024-03-07T06:11:49;31.23;;;22.83;;
10122;SDS011;5101;49.038;8.710;2024-03-07T06:14:15;32.23;;;23.80;;
10122;SDS011;5101;49.038;8.710;2024-03-07T06:16:41;34.53;;;25.57;;
10122;SDS011;5101;49.038;8.710;2024-03-07T06:19:07;39.77;;;26.33;;
10122;SDS011;5101;49.038;8.710;2024-03-07T06:21:34;36.73;;;25.07;;
10122;SDS011;5101;49.038;8.710;2024-03-07T06:24:04;35.10;;;25.10;;
10122;SDS011;5101;49.038;8.710;2024-03-07T06:26:30;38.97;;;27.07;;
10122;SDS011;5101;49.038;8.710;2024-03-07T06:29:09;36.57;;;24.80;;
10122;SDS011;5101;49.038;8.710;2024-03-07T06:31:36;37.23;;;26.50;;
10122;SDS011;5101;49.038;8.710;2024-03-07T06:34:02;38.63;;;27.13;;
10122;SDS011;5101;49.038;8.710;2024-03-07T06:36:28;35.53;;;25.33;;
10122;SDS011;5101;49.038;8.710;2024-03-07T06:38:53;35.07;;;25.90;;
10122;SDS011;5101;49.038;8.710;2024-03-07T06:41:19;34.53;;;24.70;;
10122;SDS011;5101;49.038;8.710;2024-03-07T06:43:45;35.07;;;25.20;;
10122;SDS011;5101;49.038;8.710;2024-03-07T06:46:10;36.93;;;25.40;;
10122;SDS011;5101;49.038;8.710;2024-03-07T06:48:37;34.43;;;24.63;;
10122;SDS011;5101;49.038;8.710;2024-03-07T06:51:05;35.43;;;25.53;;
10122;SDS011;5101;49.038;8.710;2024-03-07T06:53:30;33.13;;;23.17;;
10122;SDS011;5101;49.038;8.710;2024-03-07T06:55:56;27.83;;;22.20;;
10122;SDS011;5101;49.038;8.710;2024-03-07T06:58:21;35.90;;;23.50;;
10122;SDS011;5101;49.038;8.710;2024-03-07T07:00:47;31.13;;;22.53;;
10122;SDS011;5101;49.038;8.710;2024-03-07T07:03:16;31.13;;;22.83;;
10122;SDS011;5101;49.038;8.710;2024-03-07T07:05:46;28.47;;;21.93;;
10122;SDS011;5101;49.038;8.710;2024-03-07T07:08:11;27.83;;;21.27;;
10122;SDS011;5101;49.038;8.710;2024-03-07T07:10:38;27.90;;;20.63;;
10122;SDS011;5101;49.038;8.710;2024-03-07T07:13:05;25.77;;;21.10;;
10122;SDS011;5101;49.038;8.710;2024-03-07T07:15:35;27.07;;;21.63;;
10122;SDS011;5101;49.038;8.710;2024-03-07T07:18:02;25.43;;;19.93;;
10122;SDS011;5101;49.038;8.710;2024-03-07T07:20:28;25.40;;;20.73;;
10122;SDS011;5101;49.038;8.710;2024-03-07T07:22:54;25.43;;;19.80;;
10122;SDS011;5101;49.038;8.710;2024-03-07T07:25:19;24.50;;;19.67;;
10122;SDS011;5101;49.038;8.710;2024-03-07T07:27:47;25.60;;;20.00;;
10122;SDS011;5101;49.038;8.710;2024-03-07T07:30:14;27.63;;;20.17;;
10122;SDS011;5101;49.038;8.710;2024-03-07T07:32:41;24.30;;;19.43;;
10122;SDS011;5101;49.038;8.710;2024-03-07T07:35:08;24.20;;;18.43;;
10122;SDS011;5101;49.038;8.710;2024-03-07T07:37:39;25.43;;;19.17;;
10122;SDS011;5101;49.038;8.710;2024-03-07T07:40:17;23.27;;;19.17;;
10122;SDS011;5101;49.038;8.710;2024-03-07T07:42:44;23.53;;;17.23;;
10122;SDS011;5101;49.038;8.710;2024-03-07T07:45:11;21.00;;;17.27;;
10122;SDS011;5101;49.038;8.710;2024-03-07T07:47:41;19.53;;;15.37;;
10122;SDS011;5101;49.038;8.710;2024-03-07T07:50:09;21.57;;;17.60;;
10122;SDS011;5101;49.038;8.710;2024-03-07T07:52:42;22.47;;;17.57;;
10122;SDS011;5101;49.038;8.710;2024-03-07T07:55:18;20.35;;;17.27;;
10122;SDS011;5101;49.038;8.710;2024-03-07T07:57:54;23.57;;;18.60;;
10122;SDS011;5101;49.038;8.710;2024-03-07T08:00:22;19.42;;;16.70;;
10122;SDS011;5101;49.038;8.710;2024-03-07T08:02:52;19.02;;;16.25;;
10122;SDS011;5101;49.038;8.710;2024-03-07T08:05:22;20.42;;;16.98;;
10122;SDS011;5101;49.038;8.710;2024-03-07T08:07:53;19.52;;;16.38;;
10122;SDS011;5101;49.038;8.710;2024-03-07T08:10:20;20.08;;;16.08;;
10122;SDS011;5101;49.038;8.710;2024-03-07T08:12:48;19.33;;;16.35;;
10122;SDS011;5101;49.038;8.710;2024-03-07T08:15:14;16.95;;;14.70;;
10122;SDS011;5101;49.038;8.710;2024-03-07T08:17:40;17.15;;;15.35;;
10122;SDS011;5101;49.038;8.710;2024-03-07T08:20:08;19.00;;;15.80;;
10122;SDS011;5101;49.038;8.710;2024-03-07T08:22:36;19.10;;;16.73;;
10122;SDS011;5101;49.038;8.710;2024-03-07T08:25:03;20.13;;;16.33;;
10122;SDS011;5101;49.038;8.710;2024-03-07T08:27:34;20.95;;;16.65;;
10122;SDS011;5101;49.038;8.710;2024-03-07T08:30:03;20.23;;;15.82;;
10122;SDS011;5101;49.038;8.710;2024-03-07T08:32:31;19.42;;;16.02;;
10122;SDS011;5101;49.038;8.710;2024-03-07T08:35:02;19.05;;;16.63;;
10122;SDS011;5101;49.038;8.710;2024-03-07T08:37:55;19.60;;;16.52;;
10122;SDS011;5101;49.038;8.710;2024-03-07T08:40:22;18.85;;;16.50;;
10122;SDS011;5101;49.038;8.710;2024-03-07T08:42:50;18.45;;;15.65;;
10122;SDS011;5101;49.038;8.710;2024-03-07T08:45:16;19.50;;;15.90;;
10122;SDS011;5101;49.038;8.710;2024-03-07T08:47:44;17.48;;;14.90;;
10122;SDS011;5101;49.038;8.710;2024-03-07T08:50:10;17.92;;;15.57;;
10122;SDS011;5101;49.038;8.710;2024-03-07T08:52:38;18.45;;;15.25;;
10122;SDS011;5101;49.038;8.710;2024-03-07T08:55:05;17.17;;;14.27;;
10122;SDS011;5101;49.038;8.710;2024-03-07T08:57:31;18.73;;;14.88;;
10122;SDS011;5101;49.038;8.710;2024-03-07T08:59:57;18.05;;;14.68;;
10122;SDS011;5101;49.038;8.710;2024-03-07T09:02:22;17.58;;;14.25;;
10122;SDS011;5101;49.038;8.710;2024-03-07T09:04:48;15.80;;;13.95;;
10122;SDS011;5101;49.038;8.710;2024-03-07T09:07:14;16.55;;;14.20;;
10122;SDS011;5101;49.038;8.710;2024-03-07T09:09:40;16.45;;;14.38;;
10122;SDS011;5101;49.038;8.710;2024-03-07T09:12:10;17.38;;;14.23;;
10122;SDS011;5101;49.038;8.710;2024-03-07T09:14:36;16.30;;;13.48;;
10122;SDS011;5101;49.038;8.710;2024-03-07T09:17:02;17.23;;;13.95;;
10122;SDS011;5101;49.038;8.710;2024-03-07T09:19:29;16.60;;;13.02;;
10122;SDS011;5101;49.038;8.710;2024-03-07T09:21:55;16.13;;;13.93;;
10122;SDS011;5101;49.038;8.710;2024-03-07T09:24:21;16.00;;;13.90;;
10122;SDS011;5101;49.038;8.710;2024-03-07T09:26:50;16.02;;;13.70;;
10122;SDS011;5101;49.038;8.710;2024-03-07T09:29:16;16.67;;;14.30;;
10122;SDS011;5101;49.038;8.710;2024-03-07T09:31:43;16.98;;;14.00;;
10122;SDS011;5101;49.038;8.710;2024-03-07T09:34:09;16.02;;;13.98;;
10122;SDS011;5101;49.038;8.710;2024-03-07T09:36:34;17.27;;;14.77;;
10122;SDS011;5101;49.038;8.710;2024-03-07T09:39:00;16.98;;;14.90;;
10122;SDS011;5101;49.038;8.710;2024-03-07T09:41:26;15.75;;;13.98;;
10122;SDS011;5101;49.038;8.710;2024-03-07T09:43:52;16.63;;;14.85;;
10122;SDS011;5101;49.038;8.710;2024-03-07T09:46:21;16.83;;;13.90;;
10122;SDS011;5101;49.038;8.710;2024-03-07T09:48:48;17.08;;;15.20;;
10122;SDS011;5101;49.038;8.710;2024-03-07T09:51:18;17.08;;;14.82;;
10122;SDS011;5101;49.038;8.710;2024-03-07T09:53:48;18.02;;;15.50;;
10122;SDS011;5101;49.038;8.710;2024-03-07T09:56:17;17.38;;;15.65;;
10122;SDS011;5101;49.038;8.710;2024-03-07T09:58:47;16.50;;;14.73;;
10122;SDS011;5101;49.038;8.710;2024-03-07T10:01:15;16.35;;;14.63;;
10122;SDS011;5101;49.038;8.710;2024-03-07T10:03:44;17.52;;;15.70;;
10122;SDS011;5101;49.038;8.710;2024-03-07T10:06:13;17.50;;;15.55;;
10122;SDS011;5101;49.038;8.710;2024-03-07T10:08:40;18.52;;;15.55;;
10122;SDS011;5101;49.038;8.710;2024-03-07T10:11:07;17.55;;;15.90;;
10122;SDS011;5101;49.038;8.710;2024-03-07T10:13:36;17.65;;;15.75;;
10122;SDS011;5101;49.038;8.710;2024-03-07T10:16:01;19.02;;;16.33;;
10122;SDS011;5101;49.038;8.710;2024-03-07T10:18:29;19.65;;;16.33;;
10122;SDS011;5101;49.038;8.710;2024-03-07T10:20:56;17.70;;;15.88;;
10122;SDS011;5101;49.038;8.710;2024-03-07T10:23:22;17.23;;;15.43;;
10122;SDS011;5101;49.038;8.710;2024-03-07T10:25:48;18.58;;;16.60;;
10122;SDS011;5101;49.038;8.710;2024-03-07T10:28:19;18.65;;;16.65;;
10122;SDS011;5101;49.038;8.710;2024-03-07T10:30:45;17.70;;;15.85;;
10122;SDS011;5101;49.038;8.710;2024-03-07T10:33:12;19.23;;;16.17;;
10122;SDS011;5101;49.038;8.710;2024-03-07T10:35:38;18.08;;;16.05;;
10122;SDS011;5101;49.038;8.710;2024-03-07T10:38:04;18.00;;;16.00;;
10122;SDS011;5101;49.038;8.710;2024-03-07T10:40:32;20.90;;;16.70;;
10122;SDS011;5101;49.038;8.710;2024-03-07T10:43:00;22.30;;;18.40;;
10122;SDS011;5101;49.038;8.710;2024-03-07T10:45:35;21.08;;;17.30;;
10122;SDS011;5101;49.038;8.710;2024-03-07T10:48:08;19.20;;;17.10;;
10122;SDS011;5101;49.038;8.710;2024-03-07T10:53:15;19.75;;;17.35;;
10122;SDS011;5101;49.038;8.710;2024-03-07T10:56:05;19.95;;;17.08;;
10122;SDS011;5101;49.038;8.710;2024-03-07T10:58:50;20.42;;;18.20;;
10122;SDS011;5101;49.038;8.710;2024-03-07T11:01:21;21.15;;;17.50;;
10122;SDS011;5101;49.038;8.710;2024-03-07T11:03:50;19.88;;;17.75;;
10122;SDS011;5101;49.038;8.710;2024-03-07T11:06:17;21.00;;;16.70;;
10122;SDS011;5101;49.038;8.710;2024-03-07T11:08:44;20.38;;;17.52;;
10122;SDS011;5101;49.038;8.710;2024-03-07T11:11:10;18.60;;;16.70;;
10122;SDS011;5101;49.038;8.710;2024-03-07T11:13:37;18.80;;;16.77;;
10122;SDS011;5101;49.038;8.710;2024-03-07T11:16:04;18.90;;;16.50;;
10122;SDS011;5101;49.038;8.710;2024-03-07T11:18:31;22.45;;;17.40;;
10122;SDS011;5101;49.038;8.710;2024-03-07T11:20:56;19.92;;;17.05;;
10122;SDS011;5101;49.038;8.710;2024-03-07T11:23:26;19.80;;;17.70;;
10122;SDS011;5101;49.038;8.710;2024-03-07T11:26:01;22.33;;;16.20;;
10122;SDS011;5101;49.038;8.710;2024-03-07T11:28:34;22.27;;;18.20;;
10122;SDS011;5101;49.038;8.710;2024-03-07T11:31:08;20.33;;;18.02;;
10122;SDS011;5101;49.038;8.710;2024-03-07T11:33:38;20.55;;;17.25;;
10122;SDS011;5101;49.038;8.710;2024-03-07T11:36:08;21.00;;;18.20;;
10122;SDS011;5101;49.038;8.710;2024-03-07T11:38:37;18.98;;;16.98;;
10122;SDS011;5101;49.038;8.710;2024-03-07T11:41:22;19.65;;;17.30;;
10122;SDS011;5101;49.038;8.710;2024-03-07T11:43:48;19.80;;;17.15;;
10122;SDS011;5101;49.038;8.710;2024-03-07T11:46:17;19.60;;;17.25;;
10122;SDS011;5101;49.038;8.710;2024-03-07T11:48:42;19.52;;;16.73;;
10122;SDS011;5101;49.038;8.710;2024-03-07T11:51:12;20.90;;;17.40;;
10122;SDS011;5101;49.038;8.710;2024-03-07T11:53:43;18.58;;;16.55;;
10122;SDS011;5101;49.038;8.710;2024-03-07T11:56:08;20.58;;;18.27;;
10122;SDS011;5101;49.038;8.710;2024-03-07T11:58:41;20.52;;;17.48;;
10122;SDS011;5101;49.038;8.710;2024-03-07T12:01:09;19.00;;;16.67;;
10122;SDS011;5101;49.038;8.710;2024-03-07T12:03:36;22.60;;;16.88;;
10122;SDS011;5101;49.038;8.710;2024-03-07T12:06:02;18.63;;;16.67;;
10122;SDS011;5101;49.038;8.710;2024-03-07T12:08:28;21.60;;;17.52;;
10122;SDS011;5101;49.038;8.710;2024-03-07T12:10:54;20.42;;;17.58;;
10122;SDS011;5101;49.038;8.710;2024-03-07T12:13:21;19.00;;;16.75;;
10122;SDS011;5101;49.038;8.710;2024-03-07T12:15:48;18.88;;;16.88;;
10122;SDS011;5101;49.038;8.710;2024-03-07T12:18:16;19.17;;;17.13;;
10122;SDS011;5101;49.038;8.710;2024-03-07T12:20:43;20.55;;;17.20;;
10122;SDS011;5101;49.038;8.710;2024-03-07T12:23:18;19.30;;;16.88;;
10122;SDS011;5101;49.038;8.710;2024-03-07T12:25:44;20.65;;;16.33;;
10122;SDS011;5101;49.038;8.710;2024-03-07T12:28:11;20.80;;;16.70;;
10122;SDS011;5101;49.038;8.710;2024-03-07T12:30:48;19.33;;;16.13;;
10122;SDS011;5101;49.038;8.710;2024-03-07T12:33:15;20.35;;;18.17;;
10122;SDS011;5101;49.038;8.710;2024-03-07T12:35:42;19.92;;;17.75;;
10122;SDS011;5101;49.038;8.710;2024-03-07T12:38:20;18.13;;;16.23;;
10122;SDS011;5101;49.038;8.710;2024-03-07T12:41:01;19.88;;;15.68;;
10122;SDS011;5101;49.038;8.710;2024-03-07T12:43:31;19.90;;;16.25;;
10122;SDS011;5101;49.038;8.710;2024-03-07T12:45:57;19.27;;;15.98;;
10122;SDS011;5101;49.038;8.710;2024-03-07T12:48:24;20.52;;;17.10;;
10122;SDS011;5101;49.038;8.710;2024-03-07T12:50:49;18.50;;;16.02;;
10122;SDS011;5101;49.038;8.710;2024-03-07T12:53:24;18.55;;;16.15;;
10122;SDS011;5101;49.038;8.710;2024-03-07T12:55:51;18.52;;;15.82;;
10122;SDS011;5101;49.038;8.710;2024-03-07T12:58:17;18.60;;;16.30;;
10122;SDS011;5101;49.038;8.710;2024-03-07T13:00:45;17.83;;;15.93;;
10122;SDS011;5101;49.038;8.710;2024-03-07T13:03:10;18.23;;;16.33;;
10122;SDS011;5101;49.038;8.710;2024-03-07T13:05:39;20.55;;;16.55;;
10122;SDS011;5101;49.038;8.710;2024-03-07T13:08:08;18.20;;;16.20;;
10122;SDS011;5101;49.038;8.710;2024-03-07T13:10:39;23.27;;;17.73;;
10122;SDS011;5101;49.038;8.710;2024-03-07T13:13:06;20.60;;;17.30;;
10122;SDS011;5101;49.038;8.710;2024-03-07T13:15:31;22.40;;;16.85;;
10122;SDS011;5101;49.038;8.710;2024-03-07T13:17:57;19.80;;;17.50;;
10122;SDS011;5101;49.038;8.710;2024-03-07T13:20:22;20.45;;;18.25;;
10122;SDS011;5101;49.038;8.710;2024-03-07T13:22:51;18.55;;;16.45;;
10122;SDS011;5101;49.038;8.710;2024-03-07T13:25:22;18.80;;;16.80;;
10122;SDS011;5101;49.038;8.710;2024-03-07T13:30:26;19.58;;;16.88;;
10122;SDS011;5101;49.038;8.710;2024-03-07T13:32:55;19.23;;;16.55;;
10122;SDS011;5101;49.038;8.710;2024-03-07T13:35:22;21.30;;;18.25;;
10122;SDS011;5101;49.038;8.710;2024-03-07T13:37:49;25.45;;;21.98;;
10122;SDS011;5101;49.038;8.710;2024-03-07T13:40:15;26.80;;;21.60;;
10122;SDS011;5101;49.038;8.710;2024-03-07T13:45:31;22.05;;;19.27;;
10122;SDS011;5101;49.038;8.710;2024-03-07T13:48:06;23.73;;;18.92;;
10122;SDS011;5101;49.038;8.710;2024-03-07T13:50:33;20.02;;;17.30;;
10122;SDS011;5101;49.038;8.710;2024-03-07T13:52:59;23.50;;;17.73;;
10122;SDS011;5101;49.038;8.710;2024-03-07T14:09:17;18.95;;;15.93;;
10122;SDS011;5101;49.038;8.710;2024-03-07T14:26:58;19.73;;;16.95;;
10122;SDS011;5101;49.038;8.710;2024-03-07T14:29:49;18.77;;;16.42;;
10122;SDS011;5101;49.038;8.710;2024-03-07T14:32:16;20.33;;;16.38;;
10122;SDS011;5101;49.038;8.710;2024-03-07T14:34:47;20.73;;;18.15;;
10122;SDS011;5101;49.038;8.710;2024-03-07T14:37:36;20.50;;;17.58;;
10122;SDS011;5101;49.038;8.710;2024-03-07T14:40:09;21.23;;;17.67;;
10122;SDS011;5101;49.038;8.710;2024-03-07T14:42:44;23.30;;;17.73;;
10122;SDS011;5101;49.038;8.710;2024-03-07T14:45:12;22.73;;;18.98;;
10122;SDS011;5101;49.038;8.710;2024-03-07T14:47:44;26.48;;;18.33;;
10122;SDS011;5101;49.038;8.710;2024-03-07T14:50:12;20.08;;;17.25;;
10122;SDS011;5101;49.038;8.710;2024-03-07T14:52:37;21.75;;;17.75;;
10122;SDS011;5101;49.038;8.710;2024-03-07T14:55:06;20.15;;;16.88;;
10122;SDS011;5101;49.038;8.710;2024-03-07T14:57:39;19.13;;;17.00;;
10122;SDS011;5101;49.038;8.710;2024-03-07T15:00:07;22.48;;;18.75;;
10122;SDS011;5101;49.038;8.710;2024-03-07T15:02:42;20.55;;;17.05;;
10122;SDS011;5101;49.038;8.710;2024-03-07T15:05:10;21.60;;;17.92;;
10122;SDS011;5101;49.038;8.710;2024-03-07T15:07:36;21.50;;;17.30;;
10122;SDS011;5101;49.038;8.710;2024-03-07T15:10:02;21.58;;;17.48;;
10122;SDS011;5101;49.038;8.710;2024-03-07T15:12:31;19.88;;;17.33;;